sensor_id;sensor_type;location;lat;lon;timestamp;P1;durP1;ratioP1;P2;durP2;ratioP2
16385;SDS011;8302;51.154;4.456;2023-08-21T00:02:22;0.57;;;0.50;;
16385;SDS011;8302;51.154;4.456;2023-08-21T00:04:51;1.58;;;0.60;;
16385;SDS011;8302;51.154;4.456;2023-08-21T00:07:18;1.60;;;0.47;;
16385;SDS011;8302;51.154;4.456;2023-08-21T00:09:46;0.98;;;0.50;;
16385;SDS011;8302;51.154;4.456;2023-08-21T00:12:14;0.65;;;0.25;;
16385;SDS011;8302;51.154;4.456;2023-08-21T00:14:41;0.32;;;0.30;;
16385;SDS011;8302;51.154;4.456;2023-08-21T00:17:09;0.45;;;0.45;;
16385;SDS011;8302;51.154;4.456;2023-08-21T00:19:37;0.10;;;0.10;;
16385;SDS011;8302;51.154;4.456;2023-08-21T00:22:06;0.85;;;0.32;;
16385;SDS011;8302;51.154;4.456;2023-08-21T00:24:34;0.10;;;0.10;;
16385;SDS011;8302;51.154;4.456;2023-08-21T00:27:02;0.10;;;0.10;;
16385;SDS011;8302;51.154;4.456;2023-08-21T00:29:30;0.25;;;0.25;;
16385;SDS011;8302;51.154;4.456;2023-08-21T00:31:58;0.28;;;0.20;;
16385;SDS011;8302;51.154;4.456;2023-08-21T00:34:25;0.20;;;0.20;;
16385;SDS011;8302;51.154;4.456;2023-08-21T00:36:53;0.30;;;0.20;;
16385;SDS011;8302;51.154;4.456;2023-08-21T00:39:22;0.15;;;0.15;;
16385;SDS011;8302;51.154;4.456;2023-08-21T00:41:51;0.22;;;0.20;;
16385;SDS011;8302;51.154;4.456;2023-08-21T00:44:18;1.80;;;0.47;;
16385;SDS011;8302;51.154;4.456;2023-08-21T00:46:46;0.40;;;0.40;;
16385;SDS011;8302;51.154;4.456;2023-08-21T00:49:15;0.22;;;0.22;;
16385;SDS011;8302;51.154;4.456;2023-08-21T00:51:42;0.20;;;0.20;;
16385;SDS011;8302;51.154;4.456;2023-08-21T00:54:11;0.28;;;0.28;;
16385;SDS011;8302;51.154;4.456;2023-08-21T00:56:40;0.47;;;0.30;;
16385;SDS011;8302;51.154;4.456;2023-08-21T00:59:08;3.13;;;0.50;;
16385;SDS011;8302;51.154;4.456;2023-08-21T01:01:36;0.10;;;0.10;;
16385;SDS011;8302;51.154;4.456;2023-08-21T01:04:04;0.40;;;0.30;;
16385;SDS011;8302;51.154;4.456;2023-08-21T01:06:32;0.90;;;0.60;;
16385;SDS011;8302;51.154;4.456;2023-08-21T01:09:02;0.30;;;0.30;;
16385;SDS011;8302;51.154;4.456;2023-08-21T01:11:35;1.77;;;0.45;;
16385;SDS011;8302;51.154;4.456;2023-08-21T01:14:10;0.17;;;0.17;;
16385;SDS011;8302;51.154;4.456;2023-08-21T01:16:41;0.30;;;0.30;;
16385;SDS011;8302;51.154;4.456;2023-08-21T01:21:53;0.50;;;0.13;;
16385;SDS011;8302;51.154;4.456;2023-08-21T01:24:22;0.80;;;0.10;;
16385;SDS011;8302;51.154;4.456;2023-08-21T01:26:50;0.25;;;0.25;;
16385;SDS011;8302;51.154;4.456;2023-08-21T01:29:18;0.10;;;0.10;;
16385;SDS011;8302;51.154;4.456;2023-08-21T01:31:47;0.20;;;0.20;;
16385;SDS011;8302;51.154;4.456;2023-08-21T01:34:17;0.30;;;0.30;;
16385;SDS011;8302;51.154;4.456;2023-08-21T01:36:44;0.82;;;0.52;;
16385;SDS011;8302;51.154;4.456;2023-08-21T01:39:13;0.98;;;0.30;;
16385;SDS011;8302;51.154;4.456;2023-08-21T01:41:42;1.25;;;0.38;;
16385;SDS011;8302;51.154;4.456;2023-08-21T01:44:10;0.28;;;0.28;;
16385;SDS011;8302;51.154;4.456;2023-08-21T01:46:37;0.57;;;0.55;;
16385;SDS011;8302;51.154;4.456;2023-08-21T01:49:05;0.43;;;0.43;;
16385;SDS011;8302;51.154;4.456;2023-08-21T01:51:33;0.35;;;0.17;;
16385;SDS011;8302;51.154;4.456;2023-08-21T01:54:01;2.17;;;0.43;;
16385;SDS011;8302;51.154;4.456;2023-08-21T01:56:29;1.58;;;0.45;;
16385;SDS011;8302;51.154;4.456;2023-08-21T01:58:58;0.35;;;0.35;;
16385;SDS011;8302;51.154;4.456;2023-08-21T02:01:26;0.10;;;0.10;;
16385;SDS011;8302;51.154;4.456;2023-08-21T02:03:54;1.95;;;0.85;;
16385;SDS011;8302;51.154;4.456;2023-08-21T02:06:21;0.20;;;0.20;;
16385;SDS011;8302;51.154;4.456;2023-08-21T02:08:49;0.43;;;0.40;;
16385;SDS011;8302;51.154;4.456;2023-08-21T02:11:17;0.20;;;0.20;;
16385;SDS011;8302;51.154;4.456;2023-08-21T02:13:45;0.50;;;0.30;;
16385;SDS011;8302;51.154;4.456;2023-08-21T02:16:14;0.77;;;0.65;;
16385;SDS011;8302;51.154;4.456;2023-08-21T02:18:41;0.20;;;0.20;;
16385;SDS011;8302;51.154;4.456;2023-08-21T02:21:09;1.45;;;0.45;;
16385;SDS011;8302;51.154;4.456;2023-08-21T02:23:37;0.40;;;0.40;;
16385;SDS011;8302;51.154;4.456;2023-08-21T02:26:05;0.25;;;0.25;;
16385;SDS011;8302;51.154;4.456;2023-08-21T02:28:32;0.45;;;0.28;;
16385;SDS011;8302;51.154;4.456;2023-08-21T02:31:00;0.10;;;0.10;;
16385;SDS011;8302;51.154;4.456;2023-08-21T02:33:29;2.13;;;0.68;;
16385;SDS011;8302;51.154;4.456;2023-08-21T02:35:57;0.35;;;0.30;;
16385;SDS011;8302;51.154;4.456;2023-08-21T02:38:29;0.43;;;0.43;;
16385;SDS011;8302;51.154;4.456;2023-08-21T02:40:57;0.47;;;0.47;;
16385;SDS011;8302;51.154;4.456;2023-08-21T02:43:24;0.20;;;0.17;;
16385;SDS011;8302;51.154;4.456;2023-08-21T02:45:53;0.20;;;0.20;;
16385;SDS011;8302;51.154;4.456;2023-08-21T02:48:21;1.13;;;0.43;;
16385;SDS011;8302;51.154;4.456;2023-08-21T02:50:50;0.50;;;0.38;;
16385;SDS011;8302;51.154;4.456;2023-08-21T02:53:19;0.20;;;0.20;;
16385;SDS011;8302;51.154;4.456;2023-08-21T02:55:47;0.93;;;0.35;;
16385;SDS011;8302;51.154;4.456;2023-08-21T02:58:15;1.65;;;0.38;;
16385;SDS011;8302;51.154;4.456;2023-08-21T03:00:42;0.20;;;0.20;;
16385;SDS011;8302;51.154;4.456;2023-08-21T03:03:11;0.32;;;0.30;;
16385;SDS011;8302;51.154;4.456;2023-08-21T03:05:39;0.15;;;0.15;;
16385;SDS011;8302;51.154;4.456;2023-08-21T03:08:08;0.93;;;0.25;;
16385;SDS011;8302;51.154;4.456;2023-08-21T03:10:37;0.60;;;0.43;;
16385;SDS011;8302;51.154;4.456;2023-08-21T03:13:06;0.10;;;0.10;;
16385;SDS011;8302;51.154;4.456;2023-08-21T03:15:34;0.98;;;0.68;;
16385;SDS011;8302;51.154;4.456;2023-08-21T03:18:02;0.80;;;0.80;;
16385;SDS011;8302;51.154;4.456;2023-08-21T03:20:31;0.10;;;0.10;;
16385;SDS011;8302;51.154;4.456;2023-08-21T03:22:59;0.45;;;0.30;;
16385;SDS011;8302;51.154;4.456;2023-08-21T03:25:28;0.40;;;0.38;;
16385;SDS011;8302;51.154;4.456;2023-08-21T03:27:56;0.10;;;0.10;;
16385;SDS011;8302;51.154;4.456;2023-08-21T03:30:24;0.93;;;0.43;;
16385;SDS011;8302;51.154;4.456;2023-08-21T03:32:51;0.17;;;0.17;;
16385;SDS011;8302;51.154;4.456;2023-08-21T03:35:20;1.08;;;0.22;;
16385;SDS011;8302;51.154;4.456;2023-08-21T03:37:48;0.00;;;0.00;;
16385;SDS011;8302;51.154;4.456;2023-08-21T03:40:16;0.75;;;0.50;;
16385;SDS011;8302;51.154;4.456;2023-08-21T03:42:46;2.28;;;0.22;;
16385;SDS011;8302;51.154;4.456;2023-08-21T03:45:14;0.20;;;0.20;;
16385;SDS011;8302;51.154;4.456;2023-08-21T03:47:42;0.63;;;0.32;;
16385;SDS011;8302;51.154;4.456;2023-08-21T03:50:16;0.70;;;0.70;;
16385;SDS011;8302;51.154;4.456;2023-08-21T03:52:43;0.28;;;0.22;;
16385;SDS011;8302;51.154;4.456;2023-08-21T03:55:11;0.70;;;0.35;;
16385;SDS011;8302;51.154;4.456;2023-08-21T03:57:39;1.65;;;0.52;;
16385;SDS011;8302;51.154;4.456;2023-08-21T04:00:09;0.22;;;0.22;;
16385;SDS011;8302;51.154;4.456;2023-08-21T04:02:42;0.32;;;0.32;;
16385;SDS011;8302;51.154;4.456;2023-08-21T04:05:10;0.40;;;0.40;;
16385;SDS011;8302;51.154;4.456;2023-08-21T04:07:38;0.30;;;0.30;;
16385;SDS011;8302;51.154;4.456;2023-08-21T04:10:07;0.47;;;0.47;;
16385;SDS011;8302;51.154;4.456;2023-08-21T04:12:35;1.35;;;0.32;;
16385;SDS011;8302;51.154;4.456;2023-08-21T04:15:03;0.22;;;0.22;;
16385;SDS011;8302;51.154;4.456;2023-08-21T04:17:33;0.90;;;0.50;;
16385;SDS011;8302;51.154;4.456;2023-08-21T04:20:01;0.10;;;0.10;;
16385;SDS011;8302;51.154;4.456;2023-08-21T04:22:29;0.10;;;0.10;;
16385;SDS011;8302;51.154;4.456;2023-08-21T04:24:57;0.10;;;0.10;;
16385;SDS011;8302;51.154;4.456;2023-08-21T04:27:24;0.13;;;0.13;;
16385;SDS011;8302;51.154;4.456;2023-08-21T04:29:53;0.05;;;0.05;;
16385;SDS011;8302;51.154;4.456;2023-08-21T04:32:21;0.30;;;0.30;;
16385;SDS011;8302;51.154;4.456;2023-08-21T04:34:51;0.70;;;0.47;;
16385;SDS011;8302;51.154;4.456;2023-08-21T04:37:18;0.30;;;0.30;;
16385;SDS011;8302;51.154;4.456;2023-08-21T04:39:49;0.73;;;0.45;;
16385;SDS011;8302;51.154;4.456;2023-08-21T04:42:18;0.30;;;0.28;;
16385;SDS011;8302;51.154;4.456;2023-08-21T04:44:45;1.02;;;0.28;;
16385;SDS011;8302;51.154;4.456;2023-08-21T04:47:19;0.10;;;0.10;;
16385;SDS011;8302;51.154;4.456;2023-08-21T04:49:51;0.63;;;0.30;;
16385;SDS011;8302;51.154;4.456;2023-08-21T04:52:19;3.40;;;0.40;;
16385;SDS011;8302;51.154;4.456;2023-08-21T04:54:47;0.10;;;0.10;;
16385;SDS011;8302;51.154;4.456;2023-08-21T04:57:15;0.38;;;0.35;;
16385;SDS011;8302;51.154;4.456;2023-08-21T04:59:43;0.13;;;0.13;;
16385;SDS011;8302;51.154;4.456;2023-08-21T05:02:11;0.25;;;0.25;;
16385;SDS011;8302;51.154;4.456;2023-08-21T05:04:39;0.10;;;0.10;;
16385;SDS011;8302;51.154;4.456;2023-08-21T05:07:09;0.80;;;0.50;;
16385;SDS011;8302;51.154;4.456;2023-08-21T05:09:37;2.08;;;0.95;;
16385;SDS011;8302;51.154;4.456;2023-08-21T05:12:07;3.70;;;1.60;;
16385;SDS011;8302;51.154;4.456;2023-08-21T05:14:35;4.78;;;2.05;;
16385;SDS011;8302;51.154;4.456;2023-08-21T05:17:03;3.35;;;1.95;;
16385;SDS011;8302;51.154;4.456;2023-08-21T05:19:31;4.22;;;1.95;;
16385;SDS011;8302;51.154;4.456;2023-08-21T05:21:59;11.40;;;1.95;;
16385;SDS011;8302;51.154;4.456;2023-08-21T05:24:30;5.03;;;2.00;;
16385;SDS011;8302;51.154;4.456;2023-08-21T05:27:02;15.73;;;3.13;;
16385;SDS011;8302;51.154;4.456;2023-08-21T05:29:31;7.93;;;2.92;;
16385;SDS011;8302;51.154;4.456;2023-08-21T05:31:59;5.07;;;3.28;;
16385;SDS011;8302;51.154;4.456;2023-08-21T05:34:27;5.45;;;1.50;;
16385;SDS011;8302;51.154;4.456;2023-08-21T05:36:55;5.30;;;2.67;;
16385;SDS011;8302;51.154;4.456;2023-08-21T05:39:24;6.95;;;2.97;;
16385;SDS011;8302;51.154;4.456;2023-08-21T05:41:53;4.18;;;2.60;;
16385;SDS011;8302;51.154;4.456;2023-08-21T05:44:21;8.27;;;2.95;;
16385;SDS011;8302;51.154;4.456;2023-08-21T05:46:49;7.30;;;2.55;;
16385;SDS011;8302;51.154;4.456;2023-08-21T05:49:16;12.55;;;3.05;;
16385;SDS011;8302;51.154;4.456;2023-08-21T05:51:44;7.63;;;3.20;;
16385;SDS011;8302;51.154;4.456;2023-08-21T05:54:12;9.45;;;3.85;;
16385;SDS011;8302;51.154;4.456;2023-08-21T05:56:41;5.82;;;3.38;;
16385;SDS011;8302;51.154;4.456;2023-08-21T05:59:10;14.45;;;6.03;;
16385;SDS011;8302;51.154;4.456;2023-08-21T06:01:39;8.93;;;3.28;;
16385;SDS011;8302;51.154;4.456;2023-08-21T06:04:07;11.40;;;4.25;;
16385;SDS011;8302;51.154;4.456;2023-08-21T06:06:46;12.38;;;4.72;;
16385;SDS011;8302;51.154;4.456;2023-08-21T06:09:13;17.17;;;4.65;;
16385;SDS011;8302;51.154;4.456;2023-08-21T06:11:42;7.32;;;4.63;;
16385;SDS011;8302;51.154;4.456;2023-08-21T06:14:11;3.97;;;2.45;;
16385;SDS011;8302;51.154;4.456;2023-08-21T06:16:39;45.80;;;5.00;;
16385;SDS011;8302;51.154;4.456;2023-08-21T06:19:08;42.22;;;13.40;;
16385;SDS011;8302;51.154;4.456;2023-08-21T06:21:35;40.85;;;13.48;;
16385;SDS011;8302;51.154;4.456;2023-08-21T06:24:03;38.97;;;13.85;;
16385;SDS011;8302;51.154;4.456;2023-08-21T06:26:31;36.40;;;13.18;;
16385;SDS011;8302;51.154;4.456;2023-08-21T06:28:59;38.67;;;14.05;;
16385;SDS011;8302;51.154;4.456;2023-08-21T06:31:28;41.40;;;12.70;;
16385;SDS011;8302;51.154;4.456;2023-08-21T06:33:56;39.92;;;11.38;;
16385;SDS011;8302;51.154;4.456;2023-08-21T06:36:24;35.95;;;12.25;;
16385;SDS011;8302;51.154;4.456;2023-08-21T06:38:52;32.67;;;11.95;;
16385;SDS011;8302;51.154;4.456;2023-08-21T06:41:19;33.85;;;11.40;;
16385;SDS011;8302;51.154;4.456;2023-08-21T06:43:48;28.48;;;11.50;;
16385;SDS011;8302;51.154;4.456;2023-08-21T06:46:17;33.33;;;10.88;;
16385;SDS011;8302;51.154;4.456;2023-08-21T06:48:47;33.28;;;11.18;;
16385;SDS011;8302;51.154;4.456;2023-08-21T06:51:16;31.88;;;10.77;;
16385;SDS011;8302;51.154;4.456;2023-08-21T06:53:44;29.92;;;10.38;;
16385;SDS011;8302;51.154;4.456;2023-08-21T06:56:13;27.73;;;9.10;;
16385;SDS011;8302;51.154;4.456;2023-08-21T06:58:40;21.98;;;9.45;;
16385;SDS011;8302;51.154;4.456;2023-08-21T07:01:08;23.23;;;9.25;;
16385;SDS011;8302;51.154;4.456;2023-08-21T07:03:36;27.05;;;9.35;;
16385;SDS011;8302;51.154;4.456;2023-08-21T07:06:05;20.00;;;8.75;;
16385;SDS011;8302;51.154;4.456;2023-08-21T07:08:33;22.83;;;8.25;;
16385;SDS011;8302;51.154;4.456;2023-08-21T07:11:01;20.25;;;8.27;;
16385;SDS011;8302;51.154;4.456;2023-08-21T07:13:30;20.25;;;8.05;;
16385;SDS011;8302;51.154;4.456;2023-08-21T07:15:58;19.70;;;7.40;;
16385;SDS011;8302;51.154;4.456;2023-08-21T07:18:30;20.58;;;7.75;;
16385;SDS011;8302;51.154;4.456;2023-08-21T07:20:58;19.85;;;7.32;;
16385;SDS011;8302;51.154;4.456;2023-08-21T07:23:27;16.73;;;6.25;;
16385;SDS011;8302;51.154;4.456;2023-08-21T07:25:55;17.45;;;6.00;;
16385;SDS011;8302;51.154;4.456;2023-08-21T07:28:23;17.20;;;7.63;;
16385;SDS011;8302;51.154;4.456;2023-08-21T07:30:54;18.15;;;6.55;;
16385;SDS011;8302;51.154;4.456;2023-08-21T07:33:22;16.92;;;7.07;;
16385;SDS011;8302;51.154;4.456;2023-08-21T07:35:56;14.82;;;6.10;;
16385;SDS011;8302;51.154;4.456;2023-08-21T07:38:24;15.73;;;5.65;;
16385;SDS011;8302;51.154;4.456;2023-08-21T07:41:01;14.40;;;6.00;;
16385;SDS011;8302;51.154;4.456;2023-08-21T07:43:29;16.45;;;5.65;;
16385;SDS011;8302;51.154;4.456;2023-08-21T07:45:56;13.98;;;5.32;;
16385;SDS011;8302;51.154;4.456;2023-08-21T07:48:24;13.98;;;5.68;;
16385;SDS011;8302;51.154;4.456;2023-08-21T07:50:52;13.63;;;5.63;;
16385;SDS011;8302;51.154;4.456;2023-08-21T07:53:20;11.82;;;5.70;;
16385;SDS011;8302;51.154;4.456;2023-08-21T07:55:48;13.30;;;5.47;;
16385;SDS011;8302;51.154;4.456;2023-08-21T07:58:17;9.82;;;4.43;;
16385;SDS011;8302;51.154;4.456;2023-08-21T08:00:45;11.48;;;5.05;;
16385;SDS011;8302;51.154;4.456;2023-08-21T08:03:12;12.35;;;4.97;;
16385;SDS011;8302;51.154;4.456;2023-08-21T08:05:41;12.48;;;5.28;;
16385;SDS011;8302;51.154;4.456;2023-08-21T08:08:20;9.85;;;4.90;;
16385;SDS011;8302;51.154;4.456;2023-08-21T08:10:48;10.80;;;4.45;;
16385;SDS011;8302;51.154;4.456;2023-08-21T08:13:17;7.18;;;3.55;;
16385;SDS011;8302;51.154;4.456;2023-08-21T08:15:44;9.52;;;3.85;;
16385;SDS011;8302;51.154;4.456;2023-08-21T08:18:12;5.60;;;1.70;;
16385;SDS011;8302;51.154;4.456;2023-08-21T08:20:40;6.50;;;2.75;;
16385;SDS011;8302;51.154;4.456;2023-08-21T08:23:08;4.15;;;1.92;;
16385;SDS011;8302;51.154;4.456;2023-08-21T08:25:36;2.72;;;1.30;;
16385;SDS011;8302;51.154;4.456;2023-08-21T08:28:04;2.40;;;1.48;;
16385;SDS011;8302;51.154;4.456;2023-08-21T08:30:33;1.08;;;0.98;;
16385;SDS011;8302;51.154;4.456;2023-08-21T08:33:01;6.25;;;1.90;;
16385;SDS011;8302;51.154;4.456;2023-08-21T08:35:28;5.38;;;1.92;;
16385;SDS011;8302;51.154;4.456;2023-08-21T08:37:56;2.22;;;1.67;;
16385;SDS011;8302;51.154;4.456;2023-08-21T08:40:24;1.90;;;1.05;;
16385;SDS011;8302;51.154;4.456;2023-08-21T08:42:52;3.53;;;1.13;;
16385;SDS011;8302;51.154;4.456;2023-08-21T08:45:22;0.90;;;0.70;;
16385;SDS011;8302;51.154;4.456;2023-08-21T08:47:56;1.60;;;1.20;;
16385;SDS011;8302;51.154;4.456;2023-08-21T08:50:24;1.58;;;1.20;;
16385;SDS011;8302;51.154;4.456;2023-08-21T08:52:53;4.50;;;2.22;;
16385;SDS011;8302;51.154;4.456;2023-08-21T08:55:28;1.05;;;0.82;;
16385;SDS011;8302;51.154;4.456;2023-08-21T08:57:57;1.20;;;0.75;;
16385;SDS011;8302;51.154;4.456;2023-08-21T09:00:25;2.40;;;1.67;;
16385;SDS011;8302;51.154;4.456;2023-08-21T09:02:53;3.35;;;1.60;;
16385;SDS011;8302;51.154;4.456;2023-08-21T09:05:23;2.95;;;1.63;;
16385;SDS011;8302;51.154;4.456;2023-08-21T09:08:01;1.77;;;0.95;;
16385;SDS011;8302;51.154;4.456;2023-08-21T09:10:29;2.30;;;0.85;;
16385;SDS011;8302;51.154;4.456;2023-08-21T09:12:58;4.95;;;1.35;;
16385;SDS011;8302;51.154;4.456;2023-08-21T09:15:28;2.15;;;0.98;;
16385;SDS011;8302;51.154;4.456;2023-08-21T09:18:09;2.17;;;1.00;;
16385;SDS011;8302;51.154;4.456;2023-08-21T09:20:38;1.55;;;0.63;;
16385;SDS011;8302;51.154;4.456;2023-08-21T09:23:06;3.20;;;1.15;;
16385;SDS011;8302;51.154;4.456;2023-08-21T09:25:35;1.40;;;0.82;;
16385;SDS011;8302;51.154;4.456;2023-08-21T09:28:06;2.05;;;0.90;;
16385;SDS011;8302;51.154;4.456;2023-08-21T09:30:44;1.00;;;0.68;;
16385;SDS011;8302;51.154;4.456;2023-08-21T09:33:12;0.82;;;0.65;;
16385;SDS011;8302;51.154;4.456;2023-08-21T09:35:41;0.75;;;0.65;;
16385;SDS011;8302;51.154;4.456;2023-08-21T09:38:09;3.30;;;0.65;;
16385;SDS011;8302;51.154;4.456;2023-08-21T09:40:40;0.80;;;0.80;;
16385;SDS011;8302;51.154;4.456;2023-08-21T09:43:09;1.02;;;0.90;;
16385;SDS011;8302;51.154;4.456;2023-08-21T09:45:37;0.57;;;0.57;;
16385;SDS011;8302;51.154;4.456;2023-08-21T09:48:06;1.73;;;0.82;;
16385;SDS011;8302;51.154;4.456;2023-08-21T09:50:34;1.77;;;0.65;;
16385;SDS011;8302;51.154;4.456;2023-08-21T09:53:03;2.33;;;0.70;;
16385;SDS011;8302;51.154;4.456;2023-08-21T09:55:33;2.08;;;0.73;;
16385;SDS011;8302;51.154;4.456;2023-08-21T09:58:02;4.28;;;1.15;;
16385;SDS011;8302;51.154;4.456;2023-08-21T10:00:30;1.23;;;0.77;;
16385;SDS011;8302;51.154;4.456;2023-08-21T10:02:59;2.47;;;1.35;;
16385;SDS011;8302;51.154;4.456;2023-08-21T10:05:28;0.60;;;0.60;;
16385;SDS011;8302;51.154;4.456;2023-08-21T10:07:56;2.78;;;0.90;;
16385;SDS011;8302;51.154;4.456;2023-08-21T10:10:25;1.88;;;0.52;;
16385;SDS011;8302;51.154;4.456;2023-08-21T10:12:53;1.55;;;0.60;;
16385;SDS011;8302;51.154;4.456;2023-08-21T10:15:21;1.55;;;0.65;;
16385;SDS011;8302;51.154;4.456;2023-08-21T10:17:49;3.67;;;1.20;;
16385;SDS011;8302;51.154;4.456;2023-08-21T10:20:20;0.77;;;0.63;;
16385;SDS011;8302;51.154;4.456;2023-08-21T10:22:48;2.70;;;0.77;;
16385;SDS011;8302;51.154;4.456;2023-08-21T10:25:22;0.45;;;0.45;;
16385;SDS011;8302;51.154;4.456;2023-08-21T10:27:58;0.93;;;0.88;;
16385;SDS011;8302;51.154;4.456;2023-08-21T10:30:29;1.10;;;0.77;;
16385;SDS011;8302;51.154;4.456;2023-08-21T10:32:58;0.63;;;0.63;;
16385;SDS011;8302;51.154;4.456;2023-08-21T10:35:28;1.27;;;0.90;;
16385;SDS011;8302;51.154;4.456;2023-08-21T10:38:09;2.67;;;0.88;;
16385;SDS011;8302;51.154;4.456;2023-08-21T10:40:38;1.35;;;1.05;;
16385;SDS011;8302;51.154;4.456;2023-08-21T10:45:54;0.70;;;0.70;;
16385;SDS011;8302;51.154;4.456;2023-08-21T10:48:23;0.70;;;0.50;;
16385;SDS011;8302;51.154;4.456;2023-08-21T10:50:50;1.40;;;0.85;;
16385;SDS011;8302;51.154;4.456;2023-08-21T10:53:19;1.33;;;0.55;;
16385;SDS011;8302;51.154;4.456;2023-08-21T10:55:52;0.60;;;0.50;;
16385;SDS011;8302;51.154;4.456;2023-08-21T10:58:20;1.20;;;0.50;;
16385;SDS011;8302;51.154;4.456;2023-08-21T11:00:56;0.55;;;0.38;;
16385;SDS011;8302;51.154;4.456;2023-08-21T11:03:24;0.57;;;0.57;;
16385;SDS011;8302;51.154;4.456;2023-08-21T11:06:05;0.88;;;0.75;;
16385;SDS011;8302;51.154;4.456;2023-08-21T11:08:33;2.83;;;0.80;;
16385;SDS011;8302;51.154;4.456;2023-08-21T11:11:01;1.10;;;0.45;;
16385;SDS011;8302;51.154;4.456;2023-08-21T11:13:29;1.48;;;0.70;;
16385;SDS011;8302;51.154;4.456;2023-08-21T11:15:58;1.60;;;0.98;;
16385;SDS011;8302;51.154;4.456;2023-08-21T11:18:30;0.77;;;0.40;;
16385;SDS011;8302;51.154;4.456;2023-08-21T11:21:04;0.68;;;0.52;;
16385;SDS011;8302;51.154;4.456;2023-08-21T11:23:32;0.52;;;0.50;;
16385;SDS011;8302;51.154;4.456;2023-08-21T11:26:01;1.02;;;0.52;;
16385;SDS011;8302;51.154;4.456;2023-08-21T11:28:45;0.35;;;0.35;;
16385;SDS011;8302;51.154;4.456;2023-08-21T11:31:15;0.20;;;0.20;;
16385;SDS011;8302;51.154;4.456;2023-08-21T11:33:48;0.40;;;0.20;;
16385;SDS011;8302;51.154;4.456;2023-08-21T11:36:16;0.45;;;0.30;;
16385;SDS011;8302;51.154;4.456;2023-08-21T11:38:57;0.95;;;0.63;;
16385;SDS011;8302;51.154;4.456;2023-08-21T11:41:25;0.43;;;0.40;;
16385;SDS011;8302;51.154;4.456;2023-08-21T11:43:57;0.57;;;0.40;;
16385;SDS011;8302;51.154;4.456;2023-08-21T11:46:30;0.50;;;0.32;;
16385;SDS011;8302;51.154;4.456;2023-08-21T11:48:57;0.30;;;0.30;;
16385;SDS011;8302;51.154;4.456;2023-08-21T11:51:28;0.32;;;0.32;;
16385;SDS011;8302;51.154;4.456;2023-08-21T11:53:56;2.05;;;0.60;;
16385;SDS011;8302;51.154;4.456;2023-08-21T11:56:27;0.30;;;0.30;;
16385;SDS011;8302;51.154;4.456;2023-08-21T11:58:55;5.57;;;0.93;;
16385;SDS011;8302;51.154;4.456;2023-08-21T12:01:23;0.75;;;0.25;;
16385;SDS011;8302;51.154;4.456;2023-08-21T12:03:52;2.85;;;0.22;;
16385;SDS011;8302;51.154;4.456;2023-08-21T12:06:22;0.80;;;0.57;;
16385;SDS011;8302;51.154;4.456;2023-08-21T12:08:51;0.22;;;0.20;;
16385;SDS011;8302;51.154;4.456;2023-08-21T12:11:20;0.38;;;0.38;;
16385;SDS011;8302;51.154;4.456;2023-08-21T12:13:48;0.30;;;0.30;;
16385;SDS011;8302;51.154;4.456;2023-08-21T12:16:16;0.45;;;0.45;;
16385;SDS011;8302;51.154;4.456;2023-08-21T12:18:43;0.47;;;0.40;;
16385;SDS011;8302;51.154;4.456;2023-08-21T12:21:12;0.60;;;0.40;;
16385;SDS011;8302;51.154;4.456;2023-08-21T12:23:40;2.72;;;0.93;;
16385;SDS011;8302;51.154;4.456;2023-08-21T12:26:08;0.55;;;0.40;;
16385;SDS011;8302;51.154;4.456;2023-08-21T12:28:36;0.10;;;0.10;;
16385;SDS011;8302;51.154;4.456;2023-08-21T12:31:03;0.40;;;0.15;;
16385;SDS011;8302;51.154;4.456;2023-08-21T12:33:31;0.47;;;0.30;;
16385;SDS011;8302;51.154;4.456;2023-08-21T12:35:59;0.75;;;0.50;;
16385;SDS011;8302;51.154;4.456;2023-08-21T12:38:28;0.35;;;0.22;;
16385;SDS011;8302;51.154;4.456;2023-08-21T12:40:56;1.95;;;0.32;;
16385;SDS011;8302;51.154;4.456;2023-08-21T12:43:24;0.28;;;0.25;;
16385;SDS011;8302;51.154;4.456;2023-08-21T12:45:51;0.30;;;0.30;;
16385;SDS011;8302;51.154;4.456;2023-08-21T12:48:19;0.50;;;0.30;;
16385;SDS011;8302;51.154;4.456;2023-08-21T12:50:47;0.32;;;0.30;;
16385;SDS011;8302;51.154;4.456;2023-08-21T12:53:15;0.90;;;0.50;;
16385;SDS011;8302;51.154;4.456;2023-08-21T12:55:44;0.57;;;0.30;;
16385;SDS011;8302;51.154;4.456;2023-08-21T12:58:12;0.50;;;0.43;;
16385;SDS011;8302;51.154;4.456;2023-08-21T13:00:40;0.35;;;0.28;;
16385;SDS011;8302;51.154;4.456;2023-08-21T13:03:08;1.38;;;0.60;;
16385;SDS011;8302;51.154;4.456;2023-08-21T13:05:36;0.32;;;0.25;;
16385;SDS011;8302;51.154;4.456;2023-08-21T13:08:04;0.20;;;0.20;;
16385;SDS011;8302;51.154;4.456;2023-08-21T13:10:31;0.75;;;0.50;;
16385;SDS011;8302;51.154;4.456;2023-08-21T13:13:01;1.92;;;1.05;;
16385;SDS011;8302;51.154;4.456;2023-08-21T13:15:29;0.90;;;0.55;;
16385;SDS011;8302;51.154;4.456;2023-08-21T13:17:57;0.10;;;0.10;;
16385;SDS011;8302;51.154;4.456;2023-08-21T13:20:24;0.90;;;0.63;;
16385;SDS011;8302;51.154;4.456;2023-08-21T13:22:52;0.82;;;0.55;;
16385;SDS011;8302;51.154;4.456;2023-08-21T13:25:20;0.47;;;0.20;;
16385;SDS011;8302;51.154;4.456;2023-08-21T13:27:49;0.63;;;0.35;;
16385;SDS011;8302;51.154;4.456;2023-08-21T13:30:18;0.20;;;0.20;;
16385;SDS011;8302;51.154;4.456;2023-08-21T13:32:46;0.15;;;0.15;;
16385;SDS011;8302;51.154;4.456;2023-08-21T13:35:14;0.30;;;0.30;;
16385;SDS011;8302;51.154;4.456;2023-08-21T13:37:43;0.10;;;0.10;;
16385;SDS011;8302;51.154;4.456;2023-08-21T13:40:11;0.25;;;0.22;;
16385;SDS011;8302;51.154;4.456;2023-08-21T13:42:40;0.35;;;0.35;;
16385;SDS011;8302;51.154;4.456;2023-08-21T13:45:09;0.13;;;0.13;;
16385;SDS011;8302;51.154;4.456;2023-08-21T13:47:39;2.50;;;0.35;;
16385;SDS011;8302;51.154;4.456;2023-08-21T13:50:08;0.63;;;0.52;;
16385;SDS011;8302;51.154;4.456;2023-08-21T13:52:36;0.55;;;0.30;;
16385;SDS011;8302;51.154;4.456;2023-08-21T13:55:06;0.63;;;0.50;;
16385;SDS011;8302;51.154;4.456;2023-08-21T13:57:34;0.98;;;0.68;;
16385;SDS011;8302;51.154;4.456;2023-08-21T14:00:03;0.35;;;0.35;;
16385;SDS011;8302;51.154;4.456;2023-08-21T14:02:33;0.90;;;0.68;;
16385;SDS011;8302;51.154;4.456;2023-08-21T14:05:03;0.38;;;0.38;;
16385;SDS011;8302;51.154;4.456;2023-08-21T14:07:31;0.50;;;0.47;;
16385;SDS011;8302;51.154;4.456;2023-08-21T14:09:59;2.63;;;0.95;;
16385;SDS011;8302;51.154;4.456;2023-08-21T14:12:28;0.35;;;0.35;;
16385;SDS011;8302;51.154;4.456;2023-08-21T14:14:56;1.25;;;0.70;;
16385;SDS011;8302;51.154;4.456;2023-08-21T14:17:24;1.27;;;0.77;;
16385;SDS011;8302;51.154;4.456;2023-08-21T14:19:52;3.97;;;1.70;;
16385;SDS011;8302;51.154;4.456;2023-08-21T14:22:22;1.88;;;0.98;;
16385;SDS011;8302;51.154;4.456;2023-08-21T14:24:49;0.20;;;0.20;;
16385;SDS011;8302;51.154;4.456;2023-08-21T14:27:17;1.50;;;0.30;;
16385;SDS011;8302;51.154;4.456;2023-08-21T14:29:45;0.38;;;0.30;;
16385;SDS011;8302;51.154;4.456;2023-08-21T14:32:13;1.67;;;0.68;;
16385;SDS011;8302;51.154;4.456;2023-08-21T14:34:40;0.43;;;0.43;;
16385;SDS011;8302;51.154;4.456;2023-08-21T14:37:08;0.88;;;0.45;;
16385;SDS011;8302;51.154;4.456;2023-08-21T14:39:39;2.65;;;0.55;;
16385;SDS011;8302;51.154;4.456;2023-08-21T14:42:06;0.22;;;0.22;;
16385;SDS011;8302;51.154;4.456;2023-08-21T14:44:34;1.20;;;0.57;;
16385;SDS011;8302;51.154;4.456;2023-08-21T14:47:02;0.47;;;0.20;;
16385;SDS011;8302;51.154;4.456;2023-08-21T14:49:33;2.20;;;1.30;;
16385;SDS011;8302;51.154;4.456;2023-08-21T14:52:01;1.15;;;0.80;;
16385;SDS011;8302;51.154;4.456;2023-08-21T14:54:29;1.75;;;0.43;;
16385;SDS011;8302;51.154;4.456;2023-08-21T14:56:58;0.47;;;0.47;;
16385;SDS011;8302;51.154;4.456;2023-08-21T14:59:26;0.98;;;0.90;;
16385;SDS011;8302;51.154;4.456;2023-08-21T15:01:54;5.35;;;1.17;;
16385;SDS011;8302;51.154;4.456;2023-08-21T15:04:22;0.57;;;0.57;;
16385;SDS011;8302;51.154;4.456;2023-08-21T15:06:49;0.20;;;0.20;;
16385;SDS011;8302;51.154;4.456;2023-08-21T15:09:17;4.07;;;1.35;;
16385;SDS011;8302;51.154;4.456;2023-08-21T15:11:45;0.70;;;0.38;;
16385;SDS011;8302;51.154;4.456;2023-08-21T15:14:14;0.90;;;0.50;;